sensor_id;sensor_type;location;lat;lon;timestamp;pressure;altitude;pressure_sealevel;temperature;humidity
72959;BME280;60008;50.826;6.896;2023-04-03T00:00:29;102261.41;;;4.35;100.00
72959;BME280;60008;50.826;6.896;2023-04-03T00:03:14;102259.22;;;4.43;100.00
72959;BME280;60008;50.826;6.896;2023-04-03T00:06:00;102263.94;;;4.52;100.00
72959;BME280;60008;50.826;6.896;2023-04-03T00:08:45;102256.16;;;4.50;100.00
72959;BME280;60008;50.826;6.896;2023-04-03T00:11:30;102258.09;;;4.31;100.00
72959;BME280;60008;50.826;6.896;2023-04-03T00:14:15;102249.81;;;4.39;100.00
72959;BME280;60008;50.826;6.896;2023-04-03T00:17:00;102252.69;;;4.34;100.00
72959;BME280;60008;50.826;6.896;2023-04-03T00:19:46;102246.44;;;4.37;100.00
72959;BME280;60008;50.826;6.896;2023-04-03T00:22:30;102254.31;;;4.37;100.00
72959;BME280;60008;50.826;6.896;2023-04-03T00:25:15;102251.00;;;4.33;100.00
72959;BME280;60008;50.826;6.896;2023-04-03T00:28:01;102255.91;;;4.39;100.00
72959;BME280;60008;50.826;6.896;2023-04-03T00:30:46;102259.19;;;4.27;100.00
72959;BME280;60008;50.826;6.896;2023-04-03T00:33:32;102268.19;;;4.39;100.00
72959;BME280;60008;50.826;6.896;2023-04-03T00:36:17;102255.81;;;4.25;100.00
72959;BME280;60008;50.826;6.896;2023-04-03T00:39:02;102254.88;;;4.26;100.00
72959;BME280;60008;50.826;6.896;2023-04-03T00:41:47;102249.09;;;4.19;100.00
72959;BME280;60008;50.826;6.896;2023-04-03T00:47:17;102246.00;;;4.13;100.00
72959;BME280;60008;50.826;6.896;2023-04-03T00:50:03;102255.38;;;4.17;100.00
72959;BME280;60008;50.826;6.896;2023-04-03T00:52:48;102248.59;;;4.13;100.00
72959;BME280;60008;50.826;6.896;2023-04-03T00:55:35;102252.06;;;4.13;100.00
72959;BME280;60008;50.826;6.896;2023-04-03T00:58:34;102252.31;;;4.09;100.00
72959;BME280;60008;50.826;6.896;2023-04-03T01:01:24;102243.28;;;4.14;100.00
72959;BME280;60008;50.826;6.896;2023-04-03T01:04:30;102245.78;;;4.16;100.00
72959;BME280;60008;50.826;6.896;2023-04-03T01:07:19;102244.13;;;4.15;100.00
72959;BME280;60008;50.826;6.896;2023-04-03T01:10:09;102237.38;;;4.27;100.00
72959;BME280;60008;50.826;6.896;2023-04-03T01:12:54;102248.84;;;4.24;100.00
72959;BME280;60008;50.826;6.896;2023-04-03T01:15:39;102242.94;;;4.20;100.00
72959;BME280;60008;50.826;6.896;2023-04-03T01:18:25;102242.66;;;4.09;100.00
72959;BME280;60008;50.826;6.896;2023-04-03T01:24:36;102238.06;;;3.97;100.00
72959;BME280;60008;50.826;6.896;2023-04-03T01:27:23;102239.44;;;4.04;100.00
72959;BME280;60008;50.826;6.896;2023-04-03T01:30:09;102242.06;;;4.04;100.00
72959;BME280;60008;50.826;6.896;2023-04-03T01:32:54;102242.41;;;3.98;100.00
72959;BME280;60008;50.826;6.896;2023-04-03T01:35:39;102252.28;;;3.93;100.00
72959;BME280;60008;50.826;6.896;2023-04-03T01:38:24;102239.41;;;3.89;100.00
72959;BME280;60008;50.826;6.896;2023-04-03T01:41:10;102240.22;;;3.74;100.00
72959;BME280;60008;50.826;6.896;2023-04-03T01:43:55;102241.66;;;3.79;100.00
72959;BME280;60008;50.826;6.896;2023-04-03T01:46:39;102239.75;;;3.83;100.00
72959;BME280;60008;50.826;6.896;2023-04-03T01:49:25;102240.13;;;3.75;100.00
72959;BME280;60008;50.826;6.896;2023-04-03T01:52:11;102250.00;;;3.70;100.00
72959;BME280;60008;50.826;6.896;2023-04-03T01:54:56;102249.41;;;3.65;100.00
72959;BME280;60008;50.826;6.896;2023-04-03T01:57:41;102254.03;;;3.60;100.00
72959;BME280;60008;50.826;6.896;2023-04-03T02:00:26;102249.66;;;3.43;100.00
72959;BME280;60008;50.826;6.896;2023-04-03T02:03:11;102242.78;;;3.41;100.00
72959;BME280;60008;50.826;6.896;2023-04-03T02:05:56;102257.00;;;3.37;100.00
72959;BME280;60008;50.826;6.896;2023-04-03T02:08:41;102255.66;;;3.28;100.00
72959;BME280;60008;50.826;6.896;2023-04-03T02:11:26;102259.34;;;3.24;100.00
72959;BME280;60008;50.826;6.896;2023-04-03T02:14:11;102258.84;;;3.18;100.00
72959;BME280;60008;50.826;6.896;2023-04-03T02:16:56;102254.75;;;3.12;100.00
72959;BME280;60008;50.826;6.896;2023-04-03T02:19:42;102257.50;;;3.09;100.00
72959;BME280;60008;50.826;6.896;2023-04-03T02:22:27;102255.19;;;3.03;100.00
72959;BME280;60008;50.826;6.896;2023-04-03T02:25:12;102264.66;;;3.06;100.00
72959;BME280;60008;50.826;6.896;2023-04-03T02:27:57;102259.28;;;3.09;100.00
72959;BME280;60008;50.826;6.896;2023-04-03T02:30:42;102263.94;;;3.02;100.00
72959;BME280;60008;50.826;6.896;2023-04-03T02:33:27;102262.47;;;2.96;100.00
72959;BME280;60008;50.826;6.896;2023-04-03T02:36:12;102265.91;;;2.98;100.00
72959;BME280;60008;50.826;6.896;2023-04-03T02:38:57;102268.94;;;2.89;100.00
72959;BME280;60008;50.826;6.896;2023-04-03T02:41:42;102271.84;;;2.83;100.00
72959;BME280;60008;50.826;6.896;2023-04-03T02:44:27;102273.28;;;2.72;100.00
72959;BME280;60008;50.826;6.896;2023-04-03T02:47:12;102269.03;;;2.69;100.00
72959;BME280;60008;50.826;6.896;2023-04-03T02:49:57;102268.91;;;2.72;100.00
72959;BME280;60008;50.826;6.896;2023-04-03T02:52:42;102270.03;;;2.67;100.00
72959;BME280;60008;50.826;6.896;2023-04-03T02:55:27;102270.13;;;2.65;100.00
72959;BME280;60008;50.826;6.896;2023-04-03T02:58:12;102272.97;;;2.61;100.00
72959;BME280;60008;50.826;6.896;2023-04-03T03:00:57;102270.53;;;2.56;100.00
72959;BME280;60008;50.826;6.896;2023-04-03T03:03:42;102279.84;;;2.45;100.00
72959;BME280;60008;50.826;6.896;2023-04-03T03:06:27;102277.53;;;2.37;100.00
72959;BME280;60008;50.826;6.896;2023-04-03T03:09:12;102278.63;;;2.33;100.00
72959;BME280;60008;50.826;6.896;2023-04-03T03:11:58;102279.31;;;2.36;100.00
72959;BME280;60008;50.826;6.896;2023-04-03T03:14:43;102283.13;;;2.29;100.00
72959;BME280;60008;50.826;6.896;2023-04-03T03:17:28;102276.50;;;2.22;100.00
72959;BME280;60008;50.826;6.896;2023-04-03T03:20:13;102281.63;;;2.24;100.00
72959;BME280;60008;50.826;6.896;2023-04-03T03:23:01;102278.66;;;2.13;100.00
72959;BME280;60008;50.826;6.896;2023-04-03T03:25:45;102288.84;;;2.19;100.00
72959;BME280;60008;50.826;6.896;2023-04-03T03:28:31;102287.13;;;2.18;100.00
72959;BME280;60008;50.826;6.896;2023-04-03T03:31:16;102282.13;;;2.13;100.00
72959;BME280;60008;50.826;6.896;2023-04-03T03:34:00;102283.47;;;2.03;100.00
72959;BME280;60008;50.826;6.896;2023-04-03T03:36:46;102285.28;;;2.01;100.00
72959;BME280;60008;50.826;6.896;2023-04-03T03:39:30;102284.25;;;2.05;100.00
72959;BME280;60008;50.826;6.896;2023-04-03T03:42:16;102283.47;;;2.03;100.00
72959;BME280;60008;50.826;6.896;2023-04-03T03:45:01;102285.22;;;2.03;100.00
72959;BME280;60008;50.826;6.896;2023-04-03T03:47:46;102277.00;;;1.92;100.00
72959;BME280;60008;50.826;6.896;2023-04-03T03:50:31;102278.38;;;1.80;100.00
72959;BME280;60008;50.826;6.896;2023-04-03T03:53:16;102281.06;;;1.78;100.00
72959;BME280;60008;50.826;6.896;2023-04-03T03:56:01;102278.59;;;1.75;100.00
72959;BME280;60008;50.826;6.896;2023-04-03T03:58:46;102282.31;;;1.70;100.00
72959;BME280;60008;50.826;6.896;2023-04-03T04:01:31;102286.69;;;1.69;100.00
72959;BME280;60008;50.826;6.896;2023-04-03T04:04:16;102285.97;;;1.66;100.00
72959;BME280;60008;50.826;6.896;2023-04-03T04:07:02;102289.88;;;1.56;100.00
72959;BME280;60008;50.826;6.896;2023-04-03T04:09:47;102293.59;;;1.50;100.00
72959;BME280;60008;50.826;6.896;2023-04-03T04:12:32;102287.81;;;1.44;100.00
72959;BME280;60008;50.826;6.896;2023-04-03T04:15:18;102294.06;;;1.40;100.00
72959;BME280;60008;50.826;6.896;2023-04-03T04:18:04;102290.22;;;1.48;100.00
72959;BME280;60008;50.826;6.896;2023-04-03T04:20:49;102294.25;;;1.55;100.00
72959;BME280;60008;50.826;6.896;2023-04-03T04:23:34;102296.19;;;1.52;100.00
72959;BME280;60008;50.826;6.896;2023-04-03T04:26:20;102293.84;;;1.44;100.00
72959;BME280;60008;50.826;6.896;2023-04-03T04:29:06;102295.91;;;1.38;100.00
72959;BME280;60008;50.826;6.896;2023-04-03T04:31:51;102296.38;;;1.26;100.00
72959;BME280;60008;50.826;6.896;2023-04-03T04:34:35;102307.75;;;1.25;100.00
72959;BME280;60008;50.826;6.896;2023-04-03T04:37:20;102311.16;;;1.27;100.00
72959;BME280;60008;50.826;6.896;2023-04-03T04:40:06;102311.34;;;1.22;100.00
72959;BME280;60008;50.826;6.896;2023-04-03T04:42:51;102312.97;;;1.25;100.00
72959;BME280;60008;50.826;6.896;2023-04-03T04:45:36;102323.56;;;1.22;100.00
72959;BME280;60008;50.826;6.896;2023-04-03T04:48:22;102319.09;;;1.24;100.00
72959;BME280;60008;50.826;6.896;2023-04-03T04:51:07;102329.63;;;1.22;100.00
72959;BME280;60008;50.826;6.896;2023-04-03T04:53:52;102321.72;;;1.24;100.00
72959;BME280;60008;50.826;6.896;2023-04-03T04:56:39;102330.84;;;1.13;100.00
72959;BME280;60008;50.826;6.896;2023-04-03T04:59:25;102324.41;;;1.22;100.00
72959;BME280;60008;50.826;6.896;2023-04-03T05:02:10;102336.22;;;1.09;100.00
72959;BME280;60008;50.826;6.896;2023-04-03T05:04:55;102332.53;;;1.14;100.00
72959;BME280;60008;50.826;6.896;2023-04-03T05:07:39;102334.66;;;1.05;100.00
72959;BME280;60008;50.826;6.896;2023-04-03T05:10:25;102339.03;;;1.04;100.00
72959;BME280;60008;50.826;6.896;2023-04-03T05:13:09;102339.09;;;1.03;100.00
72959;BME280;60008;50.826;6.896;2023-04-03T05:15:55;102352.03;;;1.06;100.00
72959;BME280;60008;50.826;6.896;2023-04-03T05:18:39;102351.19;;;1.05;100.00
72959;BME280;60008;50.826;6.896;2023-04-03T05:21:25;102354.56;;;1.07;100.00
72959;BME280;60008;50.826;6.896;2023-04-03T05:24:11;102357.53;;;1.20;100.00
72959;BME280;60008;50.826;6.896;2023-04-03T05:26:56;102356.75;;;1.18;100.00
72959;BME280;60008;50.826;6.896;2023-04-03T05:29:40;102360.41;;;1.14;100.00
72959;BME280;60008;50.826;6.896;2023-04-03T05:32:29;102362.88;;;1.17;100.00
72959;BME280;60008;50.826;6.896;2023-04-03T05:35:14;102360.97;;;1.22;100.00
72959;BME280;60008;50.826;6.896;2023-04-03T05:37:59;102359.06;;;1.26;100.00
72959;BME280;60008;50.826;6.896;2023-04-03T05:40:45;102366.28;;;1.41;100.00
72959;BME280;60008;50.826;6.896;2023-04-03T05:43:30;102364.66;;;1.38;100.00
72959;BME280;60008;50.826;6.896;2023-04-03T05:46:17;102374.06;;;1.42;100.00
72959;BME280;60008;50.826;6.896;2023-04-03T05:49:03;102366.06;;;1.47;100.00
72959;BME280;60008;50.826;6.896;2023-04-03T05:51:48;102367.28;;;1.58;100.00
72959;BME280;60008;50.826;6.896;2023-04-03T05:54:33;102368.06;;;1.60;100.00
72959;BME280;60008;50.826;6.896;2023-04-03T05:57:18;102367.69;;;1.69;100.00
72959;BME280;60008;50.826;6.896;2023-04-03T06:00:07;102367.38;;;1.77;100.00
72959;BME280;60008;50.826;6.896;2023-04-03T06:02:53;102372.41;;;1.82;100.00
72959;BME280;60008;50.826;6.896;2023-04-03T06:05:38;102370.59;;;2.04;100.00
72959;BME280;60008;50.826;6.896;2023-04-03T06:08:23;102375.97;;;2.39;100.00
72959;BME280;60008;50.826;6.896;2023-04-03T06:11:09;102371.53;;;2.42;100.00
72959;BME280;60008;50.826;6.896;2023-04-03T06:13:53;102366.19;;;2.63;100.00
72959;BME280;60008;50.826;6.896;2023-04-03T06:16:38;102372.81;;;2.70;100.00
72959;BME280;60008;50.826;6.896;2023-04-03T06:19:24;102377.28;;;2.87;100.00
72959;BME280;60008;50.826;6.896;2023-04-03T06:22:09;102379.19;;;2.83;100.00
72959;BME280;60008;50.826;6.896;2023-04-03T06:24:57;102381.16;;;2.97;100.00
72959;BME280;60008;50.826;6.896;2023-04-03T06:27:42;102380.75;;;3.06;100.00
72959;BME280;60008;50.826;6.896;2023-04-03T06:30:27;102379.84;;;3.07;100.00
72959;BME280;60008;50.826;6.896;2023-04-03T06:33:12;102384.56;;;3.18;100.00
72959;BME280;60008;50.826;6.896;2023-04-03T06:35:58;102382.94;;;3.15;100.00
72959;BME280;60008;50.826;6.896;2023-04-03T06:38:43;102383.84;;;3.14;100.00
72959;BME280;60008;50.826;6.896;2023-04-03T06:41:28;102376.81;;;3.33;100.00
72959;BME280;60008;50.826;6.896;2023-04-03T06:44:13;102387.28;;;3.33;100.00
72959;BME280;60008;50.826;6.896;2023-04-03T06:47:00;102381.53;;;3.44;100.00
72959;BME280;60008;50.826;6.896;2023-04-03T06:49:45;102373.19;;;3.36;100.00
72959;BME280;60008;50.826;6.896;2023-04-03T06:52:30;102376.75;;;3.52;100.00
72959;BME280;60008;50.826;6.896;2023-04-03T06:55:15;102378.22;;;3.57;100.00
72959;BME280;60008;50.826;6.896;2023-04-03T06:58:00;102387.41;;;3.66;100.00
72959;BME280;60008;50.826;6.896;2023-04-03T07:00:45;102384.91;;;3.46;100.00
72959;BME280;60008;50.826;6.896;2023-04-03T07:03:31;102378.19;;;3.40;100.00
72959;BME280;60008;50.826;6.896;2023-04-03T07:06:19;102379.66;;;3.46;100.00
72959;BME280;60008;50.826;6.896;2023-04-03T07:09:04;102381.06;;;3.36;100.00
72959;BME280;60008;50.826;6.896;2023-04-03T07:11:49;102366.34;;;3.68;100.00
72959;BME280;60008;50.826;6.896;2023-04-03T07:14:34;102369.53;;;3.74;100.00
72959;BME280;60008;50.826;6.896;2023-04-03T07:17:19;102366.13;;;3.89;100.00
72959;BME280;60008;50.826;6.896;2023-04-03T07:20:05;102370.16;;;3.96;100.00
72959;BME280;60008;50.826;6.896;2023-04-03T07:22:50;102366.81;;;4.10;100.00
72959;BME280;60008;50.826;6.896;2023-04-03T07:25:36;102366.13;;;4.06;100.00
72959;BME280;60008;50.826;6.896;2023-04-03T07:28:22;102371.06;;;3.95;100.00
72959;BME280;60008;50.826;6.896;2023-04-03T07:31:11;102372.53;;;4.01;100.00
72959;BME280;60008;50.826;6.896;2023-04-03T07:33:58;102375.34;;;4.31;100.00
72959;BME280;60008;50.826;6.896;2023-04-03T07:36:43;102376.03;;;4.34;100.00
72959;BME280;60008;50.826;6.896;2023-04-03T07:39:28;102381.19;;;4.36;100.00
72959;BME280;60008;50.826;6.896;2023-04-03T07:42:14;102385.41;;;4.05;100.00
72959;BME280;60008;50.826;6.896;2023-04-03T07:44:59;102385.13;;;4.27;100.00
72959;BME280;60008;50.826;6.896;2023-04-03T07:47:44;102380.34;;;4.35;100.00
72959;BME280;60008;50.826;6.896;2023-04-03T07:50:29;102384.81;;;4.50;100.00
72959;BME280;60008;50.826;6.896;2023-04-03T07:53:15;102386.75;;;4.30;100.00
72959;BME280;60008;50.826;6.896;2023-04-03T07:56:00;102384.97;;;4.47;100.00
72959;BME280;60008;50.826;6.896;2023-04-03T07:58:47;102387.59;;;4.47;100.00
72959;BME280;60008;50.826;6.896;2023-04-03T08:01:31;102396.69;;;4.73;100.00
72959;BME280;60008;50.826;6.896;2023-04-03T08:04:18;102387.59;;;4.30;100.00
72959;BME280;60008;50.826;6.896;2023-04-03T08:07:03;102390.22;;;4.63;100.00
72959;BME280;60008;50.826;6.896;2023-04-03T08:09:49;102393.75;;;4.46;100.00
72959;BME280;60008;50.826;6.896;2023-04-03T08:12:34;102394.13;;;4.56;100.00
72959;BME280;60008;50.826;6.896;2023-04-03T08:15:20;102385.34;;;4.72;100.00
72959;BME280;60008;50.826;6.896;2023-04-03T08:18:05;102388.63;;;4.76;100.00
72959;BME280;60008;50.826;6.896;2023-04-03T08:20:51;102396.72;;;4.89;100.00
72959;BME280;60008;50.826;6.896;2023-04-03T08:23:37;102389.44;;;4.78;100.00
72959;BME280;60008;50.826;6.896;2023-04-03T08:26:22;102396.22;;;5.29;100.00
72959;BME280;60008;50.826;6.896;2023-04-03T08:29:07;102388.66;;;5.23;100.00
72959;BME280;60008;50.826;6.896;2023-04-03T08:31:52;102391.47;;;5.04;100.00
72959;BME280;60008;50.826;6.896;2023-04-03T08:34:37;102396.47;;;5.09;100.00
72959;BME280;60008;50.826;6.896;2023-04-03T08:37:24;102387.47;;;5.28;100.00
72959;BME280;60008;50.826;6.896;2023-04-03T08:40:14;102401.06;;;5.66;100.00
72959;BME280;60008;50.826;6.896;2023-04-03T08:43:28;102393.59;;;7.83;94.36
72959;BME280;60008;50.826;6.896;2023-04-03T08:46:18;102400.31;;;9.02;84.36
72959;BME280;60008;50.826;6.896;2023-04-03T08:52:41;102403.53;;;8.69;77.80
72959;BME280;60008;50.826;6.896;2023-04-03T08:55:41;102405.75;;;9.48;70.55
72959;BME280;60008;50.826;6.896;2023-04-03T08:58:29;102398.41;;;8.03;77.42
72959;BME280;60008;50.826;6.896;2023-04-03T09:01:23;102401.84;;;8.68;76.01
72959;BME280;60008;50.826;6.896;2023-04-03T09:04:15;102396.19;;;9.22;71.19
72959;BME280;60008;50.826;6.896;2023-04-03T09:07:09;102401.84;;;7.78;84.40
72959;BME280;60008;50.826;6.896;2023-04-03T09:09:59;102396.47;;;8.45;76.56
72959;BME280;60008;50.826;6.896;2023-04-03T09:13:00;102398.16;;;8.58;71.07
72959;BME280;60008;50.826;6.896;2023-04-03T09:15:46;102390.69;;;9.48;74.24
72959;BME280;60008;50.826;6.896;2023-04-03T09:18:40;102398.72;;;7.99;73.03
72959;BME280;60008;50.826;6.896;2023-04-03T09:21:39;102394.59;;;10.25;67.54
72959;BME280;60008;50.826;6.896;2023-04-03T09:24:27;102392.16;;;7.92;73.18
72959;BME280;60008;50.826;6.896;2023-04-03T09:27:13;102408.06;;;8.55;71.57
72959;BME280;60008;50.826;6.896;2023-04-03T09:29:58;102404.03;;;8.62;64.82
72959;BME280;60008;50.826;6.896;2023-04-03T09:32:48;102389.81;;;9.37;58.92
72959;BME280;60008;50.826;6.896;2023-04-03T09:35:36;102396.63;;;8.79;60.34
72959;BME280;60008;50.826;6.896;2023-04-03T09:38:32;102391.81;;;9.57;56.76
72959;BME280;60008;50.826;6.896;2023-04-03T09:41:19;102398.31;;;9.29;57.97
72959;BME280;60008;50.826;6.896;2023-04-03T09:44:20;102406.28;;;8.80;57.27
72959;BME280;60008;50.826;6.896;2023-04-03T09:47:32;102402.78;;;8.29;56.10
72959;BME280;60008;50.826;6.896;2023-04-03T09:50:20;102405.09;;;10.03;53.16
72959;BME280;60008;50.826;6.896;2023-04-03T09:53:26;102392.91;;;9.31;53.32
72959;BME280;60008;50.826;6.896;2023-04-03T10:02:15;102393.25;;;8.14;56.69
72959;BME280;60008;50.826;6.896;2023-04-03T10:11:08;102384.63;;;8.37;57.60
72959;BME280;60008;50.826;6.896;2023-04-03T10:13:59;102380.50;;;9.08;55.51
72959;BME280;60008;50.826;6.896;2023-04-03T10:16:57;102376.06;;;11.46;55.37
72959;BME280;60008;50.826;6.896;2023-04-03T10:19:54;102380.94;;;9.02;55.21
72959;BME280;60008;50.826;6.896;2023-04-03T10:23:05;102379.75;;;8.69;52.53
72959;BME280;60008;50.826;6.896;2023-04-03T10:26:17;102382.16;;;9.80;51.44
72959;BME280;60008;50.826;6.896;2023-04-03T10:29:39;102377.66;;;8.98;52.41
72959;BME280;60008;50.826;6.896;2023-04-03T10:38:39;102374.94;;;9.47;50.26
72959;BME280;60008;50.826;6.896;2023-04-03T10:48:24;102351.97;;;11.69;47.96
72959;BME280;60008;50.826;6.896;2023-04-03T10:51:26;102365.66;;;9.41;49.45
72959;BME280;60008;50.826;6.896;2023-04-03T10:54:23;102344.69;;;10.97;47.58
72959;BME280;60008;50.826;6.896;2023-04-03T10:57:10;102349.66;;;10.12;46.78
72959;BME280;60008;50.826;6.896;2023-04-03T11:00:02;102354.72;;;9.22;48.13
72959;BME280;60008;50.826;6.896;2023-04-03T11:02:56;102338.63;;;11.17;48.42
72959;BME280;60008;50.826;6.896;2023-04-03T11:05:47;102342.75;;;10.10;45.73
72959;BME280;60008;50.826;6.896;2023-04-03T11:08:53;102340.19;;;9.04;46.99
72959;BME280;60008;50.826;6.896;2023-04-03T11:11:41;102332.69;;;11.56;42.95
72959;BME280;60008;50.826;6.896;2023-04-03T11:14:34;102335.41;;;12.58;43.28
72959;BME280;60008;50.826;6.896;2023-04-03T11:20:23;102339.28;;;9.64;43.31
72959;BME280;60008;50.826;6.896;2023-04-03T11:23:21;102327.63;;;10.67;43.21
72959;BME280;60008;50.826;6.896;2023-04-03T11:26:13;102332.28;;;9.63;42.04
72959;BME280;60008;50.826;6.896;2023-04-03T11:29:02;102329.81;;;10.18;42.21
72959;BME280;60008;50.826;6.896;2023-04-03T11:32:04;102335.13;;;9.25;43.15
72959;BME280;60008;50.826;6.896;2023-04-03T11:34:56;102325.81;;;9.67;40.99
72959;BME280;60008;50.826;6.896;2023-04-03T11:37:53;102324.38;;;10.31;40.80
72959;BME280;60008;50.826;6.896;2023-04-03T11:40:38;102318.38;;;11.16;41.42
72959;BME280;60008;50.826;6.896;2023-04-03T11:43:27;102322.72;;;10.30;40.36
72959;BME280;60008;50.826;6.896;2023-04-03T11:46:14;102319.78;;;9.06;42.18
72959;BME280;60008;50.826;6.896;2023-04-03T11:49:01;102311.41;;;9.82;42.17
72959;BME280;60008;50.826;6.896;2023-04-03T11:51:46;102303.66;;;10.36;43.44
72959;BME280;60008;50.826;6.896;2023-04-03T12:00:55;102299.22;;;8.37;42.81
72959;BME280;60008;50.826;6.896;2023-04-03T12:12:39;102297.63;;;8.22;44.90
72959;BME280;60008;50.826;6.896;2023-04-03T12:15:51;102282.09;;;8.43;45.88
72959;BME280;60008;50.826;6.896;2023-04-03T12:18:55;102280.94;;;8.47;43.05
72959;BME280;60008;50.826;6.896;2023-04-03T12:24:34;102279.09;;;8.72;43.06
72959;BME280;60008;50.826;6.896;2023-04-03T12:27:33;102279.63;;;8.65;44.48
72959;BME280;60008;50.826;6.896;2023-04-03T12:30:23;102281.66;;;8.61;44.98
72959;BME280;60008;50.826;6.896;2023-04-03T12:33:34;102269.59;;;8.57;44.70
72959;BME280;60008;50.826;6.896;2023-04-03T12:36:43;102264.06;;;8.36;48.31
72959;BME280;60008;50.826;6.896;2023-04-03T12:39:55;102272.50;;;8.42;44.67
72959;BME280;60008;50.826;6.896;2023-04-03T12:43:00;102268.50;;;8.36;43.37
72959;BME280;60008;50.826;6.896;2023-04-03T12:45:56;102271.47;;;8.31;42.38
72959;BME280;60008;50.826;6.896;2023-04-03T12:51:44;102261.25;;;8.63;40.28
72959;BME280;60008;50.826;6.896;2023-04-03T12:54:38;102256.47;;;8.68;40.34
72959;BME280;60008;50.826;6.896;2023-04-03T12:57:26;102253.31;;;8.63;40.07
72959;BME280;60008;50.826;6.896;2023-04-03T13:00:28;102249.31;;;8.58;39.11
72959;BME280;60008;50.826;6.896;2023-04-03T13:03:25;102254.03;;;8.65;39.56
72959;BME280;60008;50.826;6.896;2023-04-03T13:06:18;102251.34;;;9.02;38.85
72959;BME280;60008;50.826;6.896;2023-04-03T13:09:03;102233.25;;;8.61;39.71
72959;BME280;60008;50.826;6.896;2023-04-03T13:11:58;102240.00;;;8.88;39.81
72959;BME280;60008;50.826;6.896;2023-04-03T13:14:56;102241.28;;;9.41;41.37
72959;BME280;60008;50.826;6.896;2023-04-03T13:17:42;102238.25;;;9.35;43.05
72959;BME280;60008;50.826;6.896;2023-04-03T13:20:30;102229.25;;;9.37;40.19
72959;BME280;60008;50.826;6.896;2023-04-03T13:23:17;102225.50;;;9.05;40.22
72959;BME280;60008;50.826;6.896;2023-04-03T13:26:06;102220.19;;;8.94;40.44
72959;BME280;60008;50.826;6.896;2023-04-03T13:28:53;102217.25;;;8.86;38.96
72959;BME280;60008;50.826;6.896;2023-04-03T13:31:41;102213.56;;;8.88;38.25
72959;BME280;60008;50.826;6.896;2023-04-03T13:34:29;102215.06;;;9.04;38.20
72959;BME280;60008;50.826;6.896;2023-04-03T13:37:23;102216.59;;;8.95;37.64
72959;BME280;60008;50.826;6.896;2023-04-03T13:40:12;102205.59;;;9.69;41.01
72959;BME280;60008;50.826;6.896;2023-04-03T13:43:05;102210.75;;;8.55;38.06
72959;BME280;60008;50.826;6.896;2023-04-03T13:48:52;102198.69;;;8.98;39.57
72959;BME280;60008;50.826;6.896;2023-04-03T13:51:39;102189.50;;;9.15;40.13
72959;BME280;60008;50.826;6.896;2023-04-03T13:54:30;102186.94;;;9.59;41.81
72959;BME280;60008;50.826;6.896;2023-04-03T13:57:16;102194.59;;;9.40;40.77
72959;BME280;60008;50.826;6.896;2023-04-03T14:03:18;102184.28;;;9.59;43.44
72959;BME280;60008;50.826;6.896;2023-04-03T14:06:05;102186.00;;;9.15;40.79
72959;BME280;60008;50.826;6.896;2023-04-03T14:08:51;102182.97;;;9.08;42.12
72959;BME280;60008;50.826;6.896;2023-04-03T14:11:37;102180.00;;;9.81;45.45
72959;BME280;60008;50.826;6.896;2023-04-03T14:14:26;102180.69;;;10.05;41.56
72959;BME280;60008;50.826;6.896;2023-04-03T14:17:18;102172.81;;;9.26;41.98
72959;BME280;60008;50.826;6.896;2023-04-03T14:20:21;102168.19;;;8.71;41.31
72959;BME280;60008;50.826;6.896;2023-04-03T14:23:06;102170.06;;;8.92;42.05
72959;BME280;60008;50.826;6.896;2023-04-03T14:25:52;102162.31;;;9.13;40.30
72959;BME280;60008;50.826;6.896;2023-04-03T14:28:38;102158.03;;;9.34;41.66
72959;BME280;60008;50.826;6.896;2023-04-03T14:31:27;102158.91;;;9.79;43.40
72959;BME280;60008;50.826;6.896;2023-04-03T14:34:13;102153.00;;;9.87;42.86
72959;BME280;60008;50.826;6.896;2023-04-03T14:36:59;102145.91;;;9.65;42.58
72959;BME280;60008;50.826;6.896;2023-04-03T14:39:44;102143.75;;;9.59;42.34
72959;BME280;60008;50.826;6.896;2023-04-03T14:42:32;102141.88;;;10.37;43.19
72959;BME280;60008;50.826;6.896;2023-04-03T14:45:18;102141.34;;;9.78;42.03
72959;BME280;60008;50.826;6.896;2023-04-03T14:48:03;102139.84;;;9.30;42.02
72959;BME280;60008;50.826;6.896;2023-04-03T14:50:49;102140.97;;;9.38;43.42
72959;BME280;60008;50.826;6.896;2023-04-03T14:53:49;102142.78;;;9.60;42.97
72959;BME280;60008;50.826;6.896;2023-04-03T14:56:36;102147.47;;;9.79;42.49
72959;BME280;60008;50.826;6.896;2023-04-03T14:59:21;102142.03;;;9.25;41.31
72959;BME280;60008;50.826;6.896;2023-04-03T15:02:36;102139.41;;;9.58;41.88
72959;BME280;60008;50.826;6.896;2023-04-03T15:05:22;102134.22;;;9.90;44.15
72959;BME280;60008;50.826;6.896;2023-04-03T15:08:16;102133.38;;;9.89;42.10
72959;BME280;60008;50.826;6.896;2023-04-03T15:11:02;102135.56;;;9.62;42.13
72959;BME280;60008;50.826;6.896;2023-04-03T15:13:47;102129.53;;;9.49;42.31
72959;BME280;60008;50.826;6.896;2023-04-03T15:16:33;102134.94;;;9.36;40.94
72959;BME280;60008;50.826;6.896;2023-04-03T15:19:18;102121.03;;;8.99;41.81
72959;BME280;60008;50.826;6.896;2023-04-03T15:22:02;102123.97;;;9.30;42.17
72959;BME280;60008;50.826;6.896;2023-04-03T15:24:48;102115.81;;;9.33;41.30
72959;BME280;60008;50.826;6.896;2023-04-03T15:27:32;102120.13;;;9.23;42.06
72959;BME280;60008;50.826;6.896;2023-04-03T15:30:18;102115.22;;;9.63;43.20
72959;BME280;60008;50.826;6.896;2023-04-03T15:33:04;102122.56;;;9.37;43.59
72959;BME280;60008;50.826;6.896;2023-04-03T15:35:49;102126.16;;;9.36;43.26
72959;BME280;60008;50.826;6.896;2023-04-03T15:38:35;102121.13;;;9.88;45.25
72959;BME280;60008;50.826;6.896;2023-04-03T15:41:22;102126.78;;;9.73;42.62
72959;BME280;60008;50.826;6.896;2023-04-03T15:44:07;102130.78;;;9.67;43.25
72959;BME280;60008;50.826;6.896;2023-04-03T15:46:52;102117.97;;;9.17;42.76